sensor_id;sensor_type;location;lat;lon;timestamp;temperature;humidity
64855;DHT22;51321;50.428;8.378;2023-08-07T00:00:27;13.50;99.90
64855;DHT22;51321;50.428;8.378;2023-08-07T00:03:07;13.60;99.90
64855;DHT22;51321;50.428;8.378;2023-08-07T00:05:47;13.60;99.90
64855;DHT22;51321;50.428;8.378;2023-08-07T00:08:28;13.60;99.90
64855;DHT22;51321;50.428;8.378;2023-08-07T00:11:11;13.60;99.90
64855;DHT22;51321;50.428;8.378;2023-08-07T00:13:51;13.60;99.90
64855;DHT22;51321;50.428;8.378;2023-08-07T00:16:31;13.60;99.90
64855;DHT22;51321;50.428;8.378;2023-08-07T00:19:12;13.60;99.90
64855;DHT22;51321;50.428;8.378;2023-08-07T00:21:52;13.60;99.90
64855;DHT22;51321;50.428;8.378;2023-08-07T00:24:32;13.50;99.90
64855;DHT22;51321;50.428;8.378;2023-08-07T00:27:14;13.60;99.90
64855;DHT22;51321;50.428;8.378;2023-08-07T00:29:54;13.50;99.90
64855;DHT22;51321;50.428;8.378;2023-08-07T00:32:35;13.50;99.90
64855;DHT22;51321;50.428;8.378;2023-08-07T00:35:15;13.50;99.90
64855;DHT22;51321;50.428;8.378;2023-08-07T00:37:56;13.40;99.90
64855;DHT22;51321;50.428;8.378;2023-08-07T00:40:36;13.50;99.90
64855;DHT22;51321;50.428;8.378;2023-08-07T00:43:19;13.50;99.90
64855;DHT22;51321;50.428;8.378;2023-08-07T00:45:59;13.50;99.90
64855;DHT22;51321;50.428;8.378;2023-08-07T00:48:39;13.50;99.90
64855;DHT22;51321;50.428;8.378;2023-08-07T00:51:20;13.40;99.90
64855;DHT22;51321;50.428;8.378;2023-08-07T00:54:01;13.50;99.90
64855;DHT22;51321;50.428;8.378;2023-08-07T00:56:43;13.40;99.90
64855;DHT22;51321;50.428;8.378;2023-08-07T00:59:24;13.40;99.90
64855;DHT22;51321;50.428;8.378;2023-08-07T01:02:05;13.40;99.90
64855;DHT22;51321;50.428;8.378;2023-08-07T01:04:46;13.50;99.90
64855;DHT22;51321;50.428;8.378;2023-08-07T01:07:27;13.40;99.90
64855;DHT22;51321;50.428;8.378;2023-08-07T01:10:08;13.40;99.90
64855;DHT22;51321;50.428;8.378;2023-08-07T01:12:51;13.30;99.90
64855;DHT22;51321;50.428;8.378;2023-08-07T01:15:35;13.30;99.90
64855;DHT22;51321;50.428;8.378;2023-08-07T01:18:16;13.30;99.90
64855;DHT22;51321;50.428;8.378;2023-08-07T01:20:59;13.30;99.90
64855;DHT22;51321;50.428;8.378;2023-08-07T01:23:41;13.20;99.90
64855;DHT22;51321;50.428;8.378;2023-08-07T01:26:22;13.20;99.90
64855;DHT22;51321;50.428;8.378;2023-08-07T01:29:04;13.20;99.90
64855;DHT22;51321;50.428;8.378;2023-08-07T01:31:46;13.30;99.90
64855;DHT22;51321;50.428;8.378;2023-08-07T01:34:29;13.30;99.90
64855;DHT22;51321;50.428;8.378;2023-08-07T01:37:11;13.30;99.90
64855;DHT22;51321;50.428;8.378;2023-08-07T01:42:49;13.30;99.90
64855;DHT22;51321;50.428;8.378;2023-08-07T01:45:30;13.40;99.90
64855;DHT22;51321;50.428;8.378;2023-08-07T01:48:11;13.30;99.90
64855;DHT22;51321;50.428;8.378;2023-08-07T01:50:52;13.20;99.90
64855;DHT22;51321;50.428;8.378;2023-08-07T01:53:34;13.30;99.90
64855;DHT22;51321;50.428;8.378;2023-08-07T01:56:15;13.30;99.90
64855;DHT22;51321;50.428;8.378;2023-08-07T01:58:58;13.30;99.90
64855;DHT22;51321;50.428;8.378;2023-08-07T02:01:42;13.20;99.90
64855;DHT22;51321;50.428;8.378;2023-08-07T02:04:23;13.20;99.90
64855;DHT22;51321;50.428;8.378;2023-08-07T02:07:03;13.20;99.90
64855;DHT22;51321;50.428;8.378;2023-08-07T02:09:44;13.20;99.90
64855;DHT22;51321;50.428;8.378;2023-08-07T02:12:25;13.20;99.90
64855;DHT22;51321;50.428;8.378;2023-08-07T02:15:11;13.20;99.90
64855;DHT22;51321;50.428;8.378;2023-08-07T02:17:51;13.20;99.90
64855;DHT22;51321;50.428;8.378;2023-08-07T02:20:32;13.30;99.90
64855;DHT22;51321;50.428;8.378;2023-08-07T02:23:13;13.20;99.90
64855;DHT22;51321;50.428;8.378;2023-08-07T02:25:54;13.20;99.90
64855;DHT22;51321;50.428;8.378;2023-08-07T02:28:35;13.20;99.90
64855;DHT22;51321;50.428;8.378;2023-08-07T02:31:17;13.10;99.90
64855;DHT22;51321;50.428;8.378;2023-08-07T02:33:58;13.10;99.90
64855;DHT22;51321;50.428;8.378;2023-08-07T02:36:38;13.20;99.90
64855;DHT22;51321;50.428;8.378;2023-08-07T02:39:19;13.20;99.90
64855;DHT22;51321;50.428;8.378;2023-08-07T02:42:01;13.20;99.90
64855;DHT22;51321;50.428;8.378;2023-08-07T02:44:42;13.20;99.90
64855;DHT22;51321;50.428;8.378;2023-08-07T02:47:25;13.20;99.90
64855;DHT22;51321;50.428;8.378;2023-08-07T02:50:05;13.20;99.90
64855;DHT22;51321;50.428;8.378;2023-08-07T02:53:26;13.30;99.90
64855;DHT22;51321;50.428;8.378;2023-08-07T02:56:06;13.30;99.90
64855;DHT22;51321;50.428;8.378;2023-08-07T02:58:47;13.20;99.90
64855;DHT22;51321;50.428;8.378;2023-08-07T03:01:28;13.20;99.90
64855;DHT22;51321;50.428;8.378;2023-08-07T03:04:08;13.10;99.90
64855;DHT22;51321;50.428;8.378;2023-08-07T03:06:49;13.10;99.90
64855;DHT22;51321;50.428;8.378;2023-08-07T03:09:31;13.00;99.90
64855;DHT22;51321;50.428;8.378;2023-08-07T03:12:11;13.10;99.90
64855;DHT22;51321;50.428;8.378;2023-08-07T03:14:52;13.20;99.90
64855;DHT22;51321;50.428;8.378;2023-08-07T03:17:32;13.20;99.90
64855;DHT22;51321;50.428;8.378;2023-08-07T03:20:13;13.20;99.90
64855;DHT22;51321;50.428;8.378;2023-08-07T03:22:54;13.20;99.90
64855;DHT22;51321;50.428;8.378;2023-08-07T03:25:37;13.20;99.90
64855;DHT22;51321;50.428;8.378;2023-08-07T03:28:17;13.10;99.90
64855;DHT22;51321;50.428;8.378;2023-08-07T03:30:58;13.10;99.90
64855;DHT22;51321;50.428;8.378;2023-08-07T03:33:41;13.20;99.90
64855;DHT22;51321;50.428;8.378;2023-08-07T03:36:21;13.00;99.90
64855;DHT22;51321;50.428;8.378;2023-08-07T03:39:02;13.00;99.90
64855;DHT22;51321;50.428;8.378;2023-08-07T03:41:44;13.10;99.90
64855;DHT22;51321;50.428;8.378;2023-08-07T03:44:25;13.10;99.90
64855;DHT22;51321;50.428;8.378;2023-08-07T03:47:05;13.10;99.90
64855;DHT22;51321;50.428;8.378;2023-08-07T03:49:47;13.10;99.90
64855;DHT22;51321;50.428;8.378;2023-08-07T03:52:28;13.10;99.90
64855;DHT22;51321;50.428;8.378;2023-08-07T03:55:09;13.10;99.90
64855;DHT22;51321;50.428;8.378;2023-08-07T03:57:51;13.10;99.90
64855;DHT22;51321;50.428;8.378;2023-08-07T04:00:32;13.10;99.90
64855;DHT22;51321;50.428;8.378;2023-08-07T04:03:13;13.20;99.90
64855;DHT22;51321;50.428;8.378;2023-08-07T04:05:54;13.10;99.90
64855;DHT22;51321;50.428;8.378;2023-08-07T04:08:35;13.10;99.90
64855;DHT22;51321;50.428;8.378;2023-08-07T04:11:16;13.20;99.90
64855;DHT22;51321;50.428;8.378;2023-08-07T04:13:57;13.10;99.90
64855;DHT22;51321;50.428;8.378;2023-08-07T04:16:38;13.00;99.90
64855;DHT22;51321;50.428;8.378;2023-08-07T04:19:18;13.10;99.90
64855;DHT22;51321;50.428;8.378;2023-08-07T04:21:59;13.10;99.90
64855;DHT22;51321;50.428;8.378;2023-08-07T04:24:41;13.10;99.90
64855;DHT22;51321;50.428;8.378;2023-08-07T04:27:21;13.10;99.90
64855;DHT22;51321;50.428;8.378;2023-08-07T04:30:04;13.10;99.90
64855;DHT22;51321;50.428;8.378;2023-08-07T04:32:45;13.10;99.90
64855;DHT22;51321;50.428;8.378;2023-08-07T04:35:26;13.10;99.90
64855;DHT22;51321;50.428;8.378;2023-08-07T04:38:08;13.10;99.90
64855;DHT22;51321;50.428;8.378;2023-08-07T04:40:49;13.10;99.90
64855;DHT22;51321;50.428;8.378;2023-08-07T04:43:29;13.10;99.90
64855;DHT22;51321;50.428;8.378;2023-08-07T04:46:12;13.10;99.90
64855;DHT22;51321;50.428;8.378;2023-08-07T04:48:53;13.10;99.90
64855;DHT22;51321;50.428;8.378;2023-08-07T04:51:34;13.10;99.90
64855;DHT22;51321;50.428;8.378;2023-08-07T04:54:14;13.10;99.90
64855;DHT22;51321;50.428;8.378;2023-08-07T04:56:54;13.10;99.90
64855;DHT22;51321;50.428;8.378;2023-08-07T04:59:36;13.30;99.90
64855;DHT22;51321;50.428;8.378;2023-08-07T05:02:18;13.10;99.90
64855;DHT22;51321;50.428;8.378;2023-08-07T05:04:59;13.10;99.90
64855;DHT22;51321;50.428;8.378;2023-08-07T05:07:39;13.10;99.90
64855;DHT22;51321;50.428;8.378;2023-08-07T05:10:21;13.10;99.90
64855;DHT22;51321;50.428;8.378;2023-08-07T05:13:01;13.00;99.90
64855;DHT22;51321;50.428;8.378;2023-08-07T05:15:42;13.00;99.90
64855;DHT22;51321;50.428;8.378;2023-08-07T05:18:24;13.10;99.90
64855;DHT22;51321;50.428;8.378;2023-08-07T05:21:04;13.20;99.90
64855;DHT22;51321;50.428;8.378;2023-08-07T05:23:47;13.10;99.90
64855;DHT22;51321;50.428;8.378;2023-08-07T05:26:32;13.10;99.90
64855;DHT22;51321;50.428;8.378;2023-08-07T05:29:12;13.10;99.90
64855;DHT22;51321;50.428;8.378;2023-08-07T05:31:53;13.10;99.90
64855;DHT22;51321;50.428;8.378;2023-08-07T05:34:35;13.10;99.90
64855;DHT22;51321;50.428;8.378;2023-08-07T05:37:16;13.10;99.90
64855;DHT22;51321;50.428;8.378;2023-08-07T05:39:58;13.10;99.90
64855;DHT22;51321;50.428;8.378;2023-08-07T05:42:38;13.20;99.90
64855;DHT22;51321;50.428;8.378;2023-08-07T05:45:19;13.30;99.90
64855;DHT22;51321;50.428;8.378;2023-08-07T05:48:00;13.30;99.90
64855;DHT22;51321;50.428;8.378;2023-08-07T05:50:44;13.30;99.90
64855;DHT22;51321;50.428;8.378;2023-08-07T05:53:25;13.30;99.90
64855;DHT22;51321;50.428;8.378;2023-08-07T05:56:06;13.30;99.90
64855;DHT22;51321;50.428;8.378;2023-08-07T05:58:46;13.30;99.90
64855;DHT22;51321;50.428;8.378;2023-08-07T06:01:27;13.30;99.90
64855;DHT22;51321;50.428;8.378;2023-08-07T06:04:11;13.30;99.90
64855;DHT22;51321;50.428;8.378;2023-08-07T06:06:54;13.30;99.90
64855;DHT22;51321;50.428;8.378;2023-08-07T06:09:36;13.40;99.90
64855;DHT22;51321;50.428;8.378;2023-08-07T06:12:18;13.40;99.90
64855;DHT22;51321;50.428;8.378;2023-08-07T06:14:58;13.50;99.90
64855;DHT22;51321;50.428;8.378;2023-08-07T06:17:41;13.50;99.90
64855;DHT22;51321;50.428;8.378;2023-08-07T06:22:30;13.50;99.90
64855;DHT22;51321;50.428;8.378;2023-08-07T06:25:11;13.60;99.90
64855;DHT22;51321;50.428;8.378;2023-08-07T06:27:53;13.40;99.90
64855;DHT22;51321;50.428;8.378;2023-08-07T06:30:35;13.40;99.90
64855;DHT22;51321;50.428;8.378;2023-08-07T06:33:16;13.40;99.90
64855;DHT22;51321;50.428;8.378;2023-08-07T06:35:57;13.40;99.90
64855;DHT22;51321;50.428;8.378;2023-08-07T06:38:40;13.40;99.90
64855;DHT22;51321;50.428;8.378;2023-08-07T06:41:20;13.40;99.90
64855;DHT22;51321;50.428;8.378;2023-08-07T06:44:01;13.30;99.90
64855;DHT22;51321;50.428;8.378;2023-08-07T06:46:42;13.40;99.90
64855;DHT22;51321;50.428;8.378;2023-08-07T06:49:23;13.40;99.90
64855;DHT22;51321;50.428;8.378;2023-08-07T06:52:04;13.50;99.90
64855;DHT22;51321;50.428;8.378;2023-08-07T06:54:46;13.40;99.90
64855;DHT22;51321;50.428;8.378;2023-08-07T06:57:35;13.40;99.90
64855;DHT22;51321;50.428;8.378;2023-08-07T07:00:17;13.50;99.90
64855;DHT22;51321;50.428;8.378;2023-08-07T07:02:58;13.50;99.90
64855;DHT22;51321;50.428;8.378;2023-08-07T07:05:40;13.60;99.90
64855;DHT22;51321;50.428;8.378;2023-08-07T07:08:22;13.50;99.90
64855;DHT22;51321;50.428;8.378;2023-08-07T07:11:05;13.50;99.90
64855;DHT22;51321;50.428;8.378;2023-08-07T07:13:46;13.50;99.90
64855;DHT22;51321;50.428;8.378;2023-08-07T07:16:26;13.60;99.90
64855;DHT22;51321;50.428;8.378;2023-08-07T07:19:07;13.70;99.90
64855;DHT22;51321;50.428;8.378;2023-08-07T07:21:49;13.70;99.90
64855;DHT22;51321;50.428;8.378;2023-08-07T07:24:29;13.70;99.90
64855;DHT22;51321;50.428;8.378;2023-08-07T07:27:13;13.70;99.90
64855;DHT22;51321;50.428;8.378;2023-08-07T07:29:53;13.90;99.90
64855;DHT22;51321;50.428;8.378;2023-08-07T07:32:34;14.00;99.90
64855;DHT22;51321;50.428;8.378;2023-08-07T07:35:15;14.00;99.90
64855;DHT22;51321;50.428;8.378;2023-08-07T07:37:57;14.10;99.90
64855;DHT22;51321;50.428;8.378;2023-08-07T07:40:37;13.90;99.90
64855;DHT22;51321;50.428;8.378;2023-08-07T07:43:20;13.90;99.90
64855;DHT22;51321;50.428;8.378;2023-08-07T07:46:00;13.90;99.90
64855;DHT22;51321;50.428;8.378;2023-08-07T07:48:41;14.00;99.90
64855;DHT22;51321;50.428;8.378;2023-08-07T07:51:22;14.10;99.90
64855;DHT22;51321;50.428;8.378;2023-08-07T07:54:03;14.00;99.90
64855;DHT22;51321;50.428;8.378;2023-08-07T07:56:44;13.90;99.90
64855;DHT22;51321;50.428;8.378;2023-08-07T07:59:29;13.70;99.90
64855;DHT22;51321;50.428;8.378;2023-08-07T08:02:09;13.80;99.90
64855;DHT22;51321;50.428;8.378;2023-08-07T08:04:50;13.80;99.90
64855;DHT22;51321;50.428;8.378;2023-08-07T08:07:32;13.80;99.90
64855;DHT22;51321;50.428;8.378;2023-08-07T08:10:13;13.80;99.90
64855;DHT22;51321;50.428;8.378;2023-08-07T08:12:54;13.90;99.90
64855;DHT22;51321;50.428;8.378;2023-08-07T08:15:36;14.00;99.90
64855;DHT22;51321;50.428;8.378;2023-08-07T08:18:19;14.10;99.90
64855;DHT22;51321;50.428;8.378;2023-08-07T08:21:00;14.00;99.90
64855;DHT22;51321;50.428;8.378;2023-08-07T08:23:40;14.10;99.90
64855;DHT22;51321;50.428;8.378;2023-08-07T08:26:22;14.00;99.90
64855;DHT22;51321;50.428;8.378;2023-08-07T08:29:02;14.00;99.90
64855;DHT22;51321;50.428;8.378;2023-08-07T08:31:45;14.10;99.90
64855;DHT22;51321;50.428;8.378;2023-08-07T08:34:26;14.10;99.90
64855;DHT22;51321;50.428;8.378;2023-08-07T08:40:24;13.80;99.90
64855;DHT22;51321;50.428;8.378;2023-08-07T08:43:05;13.80;99.90
64855;DHT22;51321;50.428;8.378;2023-08-07T08:45:48;13.80;99.90
64855;DHT22;51321;50.428;8.378;2023-08-07T08:48:32;13.70;99.90
64855;DHT22;51321;50.428;8.378;2023-08-07T08:51:14;13.80;99.90
64855;DHT22;51321;50.428;8.378;2023-08-07T08:53:57;13.80;99.90
64855;DHT22;51321;50.428;8.378;2023-08-07T08:56:38;13.80;99.90
64855;DHT22;51321;50.428;8.378;2023-08-07T08:59:19;13.80;99.90
64855;DHT22;51321;50.428;8.378;2023-08-07T09:02:01;13.90;99.90
64855;DHT22;51321;50.428;8.378;2023-08-07T09:04:43;13.80;99.90
64855;DHT22;51321;50.428;8.378;2023-08-07T09:07:24;13.90;99.90
64855;DHT22;51321;50.428;8.378;2023-08-07T09:10:05;13.90;99.90
64855;DHT22;51321;50.428;8.378;2023-08-07T09:12:49;13.90;99.90
64855;DHT22;51321;50.428;8.378;2023-08-07T09:15:31;13.90;99.90
64855;DHT22;51321;50.428;8.378;2023-08-07T09:18:11;14.00;99.90
64855;DHT22;51321;50.428;8.378;2023-08-07T09:20:53;14.00;99.90
64855;DHT22;51321;50.428;8.378;2023-08-07T09:23:34;14.00;99.90
64855;DHT22;51321;50.428;8.378;2023-08-07T09:26:15;14.10;99.90
64855;DHT22;51321;50.428;8.378;2023-08-07T09:29:01;14.00;99.90
64855;DHT22;51321;50.428;8.378;2023-08-07T09:31:42;14.20;99.90
64855;DHT22;51321;50.428;8.378;2023-08-07T09:34:24;14.20;99.90
64855;DHT22;51321;50.428;8.378;2023-08-07T09:37:06;14.10;99.90
64855;DHT22;51321;50.428;8.378;2023-08-07T09:39:47;14.00;99.90
64855;DHT22;51321;50.428;8.378;2023-08-07T09:42:28;14.10;99.90
64855;DHT22;51321;50.428;8.378;2023-08-07T09:45:20;14.20;99.90
64855;DHT22;51321;50.428;8.378;2023-08-07T09:48:00;14.40;99.90
64855;DHT22;51321;50.428;8.378;2023-08-07T09:50:41;14.50;99.90
64855;DHT22;51321;50.428;8.378;2023-08-07T09:53:26;14.60;99.90
64855;DHT22;51321;50.428;8.378;2023-08-07T09:56:06;14.60;99.90
64855;DHT22;51321;50.428;8.378;2023-08-07T09:58:47;14.60;99.90
64855;DHT22;51321;50.428;8.378;2023-08-07T10:01:28;14.60;99.90
64855;DHT22;51321;50.428;8.378;2023-08-07T10:04:09;14.50;99.90
64855;DHT22;51321;50.428;8.378;2023-08-07T10:06:54;14.60;99.90
64855;DHT22;51321;50.428;8.378;2023-08-07T10:09:36;14.50;99.90
64855;DHT22;51321;50.428;8.378;2023-08-07T10:12:16;14.50;99.90
64855;DHT22;51321;50.428;8.378;2023-08-07T10:14:57;14.60;99.90
64855;DHT22;51321;50.428;8.378;2023-08-07T10:17:39;14.70;99.90
64855;DHT22;51321;50.428;8.378;2023-08-07T10:20:20;14.80;99.90
64855;DHT22;51321;50.428;8.378;2023-08-07T10:23:02;14.80;99.90
64855;DHT22;51321;50.428;8.378;2023-08-07T10:25:45;14.80;99.90
64855;DHT22;51321;50.428;8.378;2023-08-07T10:28:26;14.90;99.90
64855;DHT22;51321;50.428;8.378;2023-08-07T10:31:07;14.90;99.90
64855;DHT22;51321;50.428;8.378;2023-08-07T10:33:49;15.00;99.90
64855;DHT22;51321;50.428;8.378;2023-08-07T10:36:32;15.10;99.90
64855;DHT22;51321;50.428;8.378;2023-08-07T10:39:13;15.20;99.90
64855;DHT22;51321;50.428;8.378;2023-08-07T10:41:57;15.40;99.90
64855;DHT22;51321;50.428;8.378;2023-08-07T10:44:44;15.50;99.90
64855;DHT22;51321;50.428;8.378;2023-08-07T10:47:36;15.70;99.90
64855;DHT22;51321;50.428;8.378;2023-08-07T10:50:16;15.60;99.90
64855;DHT22;51321;50.428;8.378;2023-08-07T10:52:59;15.60;99.90
64855;DHT22;51321;50.428;8.378;2023-08-07T10:55:43;15.40;99.90
64855;DHT22;51321;50.428;8.378;2023-08-07T10:58:26;15.40;99.90
64855;DHT22;51321;50.428;8.378;2023-08-07T11:01:16;15.40;99.90
64855;DHT22;51321;50.428;8.378;2023-08-07T11:03:58;15.30;99.90
64855;DHT22;51321;50.428;8.378;2023-08-07T11:06:39;15.30;99.90
64855;DHT22;51321;50.428;8.378;2023-08-07T11:09:20;15.30;99.90
64855;DHT22;51321;50.428;8.378;2023-08-07T11:12:00;15.20;99.90
64855;DHT22;51321;50.428;8.378;2023-08-07T11:14:43;15.20;99.90
64855;DHT22;51321;50.428;8.378;2023-08-07T11:17:24;15.20;99.90
64855;DHT22;51321;50.428;8.378;2023-08-07T11:20:04;15.10;99.90
64855;DHT22;51321;50.428;8.378;2023-08-07T11:22:45;15.00;99.90
64855;DHT22;51321;50.428;8.378;2023-08-07T11:25:25;14.90;99.90
64855;DHT22;51321;50.428;8.378;2023-08-07T11:28:06;14.80;99.90
64855;DHT22;51321;50.428;8.378;2023-08-07T11:30:50;14.80;99.90
64855;DHT22;51321;50.428;8.378;2023-08-07T11:33:31;14.90;99.90
64855;DHT22;51321;50.428;8.378;2023-08-07T11:36:11;14.80;99.90
64855;DHT22;51321;50.428;8.378;2023-08-07T11:38:52;14.80;99.90
64855;DHT22;51321;50.428;8.378;2023-08-07T11:41:33;14.80;99.90
64855;DHT22;51321;50.428;8.378;2023-08-07T11:44:15;14.80;99.90
64855;DHT22;51321;50.428;8.378;2023-08-07T11:46:57;14.80;99.90
64855;DHT22;51321;50.428;8.378;2023-08-07T11:49:38;14.90;99.90
64855;DHT22;51321;50.428;8.378;2023-08-07T11:52:18;14.90;99.90
64855;DHT22;51321;50.428;8.378;2023-08-07T11:55:01;14.90;99.90
64855;DHT22;51321;50.428;8.378;2023-08-07T11:57:42;14.90;99.90
64855;DHT22;51321;50.428;8.378;2023-08-07T12:00:25;14.90;99.90
64855;DHT22;51321;50.428;8.378;2023-08-07T12:06:04;15.10;99.90
64855;DHT22;51321;50.428;8.378;2023-08-07T12:08:45;15.50;99.90
64855;DHT22;51321;50.428;8.378;2023-08-07T12:11:25;15.70;99.90
64855;DHT22;51321;50.428;8.378;2023-08-07T12:14:05;16.20;99.90
64855;DHT22;51321;50.428;8.378;2023-08-07T12:16:46;16.50;99.90
64855;DHT22;51321;50.428;8.378;2023-08-07T12:19:35;16.60;99.90
64855;DHT22;51321;50.428;8.378;2023-08-07T12:22:18;16.70;99.90
64855;DHT22;51321;50.428;8.378;2023-08-07T12:24:59;16.90;99.90
64855;DHT22;51321;50.428;8.378;2023-08-07T12:27:41;17.30;99.90
64855;DHT22;51321;50.428;8.378;2023-08-07T12:30:21;17.50;99.90
64855;DHT22;51321;50.428;8.378;2023-08-07T12:33:02;17.60;99.90
64855;DHT22;51321;50.428;8.378;2023-08-07T12:35:43;17.80;99.90
64855;DHT22;51321;50.428;8.378;2023-08-07T12:38:25;18.10;99.90
64855;DHT22;51321;50.428;8.378;2023-08-07T12:41:06;18.50;99.90
64855;DHT22;51321;50.428;8.378;2023-08-07T12:43:47;18.80;99.90
64855;DHT22;51321;50.428;8.378;2023-08-07T12:46:27;18.90;99.90
64855;DHT22;51321;50.428;8.378;2023-08-07T12:49:08;18.90;99.90
64855;DHT22;51321;50.428;8.378;2023-08-07T12:51:49;19.10;99.90
64855;DHT22;51321;50.428;8.378;2023-08-07T12:54:30;19.40;99.90
64855;DHT22;51321;50.428;8.378;2023-08-07T12:57:11;19.30;99.90
64855;DHT22;51321;50.428;8.378;2023-08-07T12:59:52;19.50;99.90
64855;DHT22;51321;50.428;8.378;2023-08-07T13:02:32;19.60;99.90
64855;DHT22;51321;50.428;8.378;2023-08-07T13:05:13;19.60;99.90
64855;DHT22;51321;50.428;8.378;2023-08-07T13:07:55;19.50;99.90
64855;DHT22;51321;50.428;8.378;2023-08-07T13:10:39;19.40;99.90
64855;DHT22;51321;50.428;8.378;2023-08-07T13:13:19;19.20;99.90
64855;DHT22;51321;50.428;8.378;2023-08-07T13:16:00;19.40;99.90
64855;DHT22;51321;50.428;8.378;2023-08-07T13:18:41;19.60;99.90
64855;DHT22;51321;50.428;8.378;2023-08-07T13:21:21;19.70;99.90
64855;DHT22;51321;50.428;8.378;2023-08-07T13:24:02;19.60;99.90
64855;DHT22;51321;50.428;8.378;2023-08-07T13:26:45;19.20;99.90
64855;DHT22;51321;50.428;8.378;2023-08-07T13:29:26;19.00;99.90
64855;DHT22;51321;50.428;8.378;2023-08-07T13:32:08;19.20;99.90
64855;DHT22;51321;50.428;8.378;2023-08-07T13:34:49;19.30;99.90
64855;DHT22;51321;50.428;8.378;2023-08-07T13:37:30;19.40;99.90
64855;DHT22;51321;50.428;8.378;2023-08-07T13:40:11;19.40;99.90
64855;DHT22;51321;50.428;8.378;2023-08-07T13:42:54;19.60;99.90
64855;DHT22;51321;50.428;8.378;2023-08-07T13:45:35;19.70;99.90
64855;DHT22;51321;50.428;8.378;2023-08-07T13:48:15;19.80;99.90
64855;DHT22;51321;50.428;8.378;2023-08-07T13:50:56;19.90;99.90
64855;DHT22;51321;50.428;8.378;2023-08-07T13:53:41;20.00;99.90
64855;DHT22;51321;50.428;8.378;2023-08-07T13:56:23;20.00;99.90
64855;DHT22;51321;50.428;8.378;2023-08-07T13:59:05;19.90;99.20
64855;DHT22;51321;50.428;8.378;2023-08-07T14:01:47;20.00;99.60
64855;DHT22;51321;50.428;8.378;2023-08-07T14:04:27;20.20;99.90
64855;DHT22;51321;50.428;8.378;2023-08-07T14:07:08;20.00;99.50
64855;DHT22;51321;50.428;8.378;2023-08-07T14:09:52;20.10;99.50
64855;DHT22;51321;50.428;8.378;2023-08-07T14:12:32;19.90;98.70
64855;DHT22;51321;50.428;8.378;2023-08-07T14:15:14;19.90;98.60
64855;DHT22;51321;50.428;8.378;2023-08-07T14:17:58;19.90;98.20
64855;DHT22;51321;50.428;8.378;2023-08-07T14:20:38;19.60;99.90
64855;DHT22;51321;50.428;8.378;2023-08-07T14:23:19;19.10;99.10
64855;DHT22;51321;50.428;8.378;2023-08-07T14:26:00;18.90;99.90
64855;DHT22;51321;50.428;8.378;2023-08-07T14:28:41;19.10;99.90
64855;DHT22;51321;50.428;8.378;2023-08-07T14:31:25;19.30;98.90
64855;DHT22;51321;50.428;8.378;2023-08-07T14:34:06;19.10;98.80
64855;DHT22;51321;50.428;8.378;2023-08-07T14:36:53;18.80;97.40
64855;DHT22;51321;50.428;8.378;2023-08-07T14:39:35;18.70;97.70
64855;DHT22;51321;50.428;8.378;2023-08-07T14:42:16;19.00;97.70
64855;DHT22;51321;50.428;8.378;2023-08-07T14:44:57;19.40;97.30
64855;DHT22;51321;50.428;8.378;2023-08-07T14:47:39;19.60;97.00
64855;DHT22;51321;50.428;8.378;2023-08-07T14:50:20;19.70;97.20
64855;DHT22;51321;50.428;8.378;2023-08-07T14:53:00;20.00;98.30
64855;DHT22;51321;50.428;8.378;2023-08-07T14:55:41;20.20;96.40
64855;DHT22;51321;50.428;8.378;2023-08-07T14:58:21;20.00;95.90
64855;DHT22;51321;50.428;8.378;2023-08-07T15:01:02;19.60;95.80
64855;DHT22;51321;50.428;8.378;2023-08-07T15:03:44;19.30;96.70
64855;DHT22;51321;50.428;8.378;2023-08-07T15:06:24;19.10;97.80
64855;DHT22;51321;50.428;8.378;2023-08-07T15:09:04;19.00;97.60
64855;DHT22;51321;50.428;8.378;2023-08-07T15:11:45;18.90;98.10
64855;DHT22;51321;50.428;8.378;2023-08-07T15:14:28;18.90;99.30
64855;DHT22;51321;50.428;8.378;2023-08-07T15:17:09;18.70;98.90
64855;DHT22;51321;50.428;8.378;2023-08-07T15:19:51;18.70;99.00
64855;DHT22;51321;50.428;8.378;2023-08-07T15:22:32;18.80;98.40
64855;DHT22;51321;50.428;8.378;2023-08-07T15:25:13;18.80;98.40
64855;DHT22;51321;50.428;8.378;2023-08-07T15:27:54;19.40;98.50
64855;DHT22;51321;50.428;8.378;2023-08-07T15:30:39;20.40;96.60
64855;DHT22;51321;50.428;8.378;2023-08-07T15:33:19;21.40;95.50
64855;DHT22;51321;50.428;8.378;2023-08-07T15:36:02;22.30;93.90
64855;DHT22;51321;50.428;8.378;2023-08-07T15:38:42;22.90;93.70
64855;DHT22;51321;50.428;8.378;2023-08-07T15:41:23;23.40;92.70
64855;DHT22;51321;50.428;8.378;2023-08-07T15:44:04;23.60;93.10
64855;DHT22;51321;50.428;8.378;2023-08-07T15:46:45;23.60;92.60
64855;DHT22;51321;50.428;8.378;2023-08-07T15:49:26;23.30;92.70
64855;DHT22;51321;50.428;8.378;2023-08-07T15:52:08;22.50;93.40
64855;DHT22;51321;50.428;8.378;2023-08-07T15:54:51;21.50;94.50
64855;DHT22;51321;50.428;8.378;2023-08-07T15:57:31;20.70;94.90
64855;DHT22;51321;50.428;8.378;2023-08-07T16:00:13;20.00;96.40
64855;DHT22;51321;50.428;8.378;2023-08-07T16:02:54;19.50;98.20
64855;DHT22;51321;50.428;8.378;2023-08-07T16:05:36;19.20;98.60
64855;DHT22;51321;50.428;8.378;2023-08-07T16:08:18;18.90;99.90
64855;DHT22;51321;50.428;8.378;2023-08-07T16:10:58;18.10;99.90
64855;DHT22;51321;50.428;8.378;2023-08-07T16:13:40;17.50;99.90
64855;DHT22;51321;50.428;8.378;2023-08-07T16:16:21;17.00;99.90
64855;DHT22;51321;50.428;8.378;2023-08-07T16:19:03;16.80;99.90
64855;DHT22;51321;50.428;8.378;2023-08-07T16:21:44;16.60;99.90
64855;DHT22;51321;50.428;8.378;2023-08-07T16:24:26;16.60;99.90
64855;DHT22;51321;50.428;8.378;2023-08-07T16:27:07;16.80;99.90
64855;DHT22;51321;50.428;8.378;2023-08-07T16:29:50;16.90;99.90
64855;DHT22;51321;50.428;8.378;2023-08-07T16:32:31;17.00;99.90
64855;DHT22;51321;50.428;8.378;2023-08-07T16:35:12;17.00;99.90
64855;DHT22;51321;50.428;8.378;2023-08-07T16:37:53;17.10;99.90
64855;DHT22;51321;50.428;8.378;2023-08-07T16:40:35;17.30;99.90
64855;DHT22;51321;50.428;8.378;2023-08-07T16:43:16;17.30;99.90
64855;DHT22;51321;50.428;8.378;2023-08-07T16:45:57;17.10;99.90
64855;DHT22;51321;50.428;8.378;2023-08-07T16:48:38;17.10;99.90
64855;DHT22;51321;50.428;8.378;2023-08-07T16:51:19;17.00;99.90
64855;DHT22;51321;50.428;8.378;2023-08-07T16:53:59;17.00;99.90
64855;DHT22;51321;50.428;8.378;2023-08-07T16:56:43;17.00;99.90
64855;DHT22;51321;50.428;8.378;2023-08-07T16:59:25;17.00;99.90
64855;DHT22;51321;50.428;8.378;2023-08-07T17:02:08;17.20;99.90
64855;DHT22;51321;50.428;8.378;2023-08-07T17:04:49;17.30;99.90
64855;DHT22;51321;50.428;8.378;2023-08-07T17:07:29;17.30;99.90
64855;DHT22;51321;50.428;8.378;2023-08-07T17:10:10;17.40;99.90